sensor_id;sensor_type;location;lat;lon;timestamp;temperature;humidity
8565;DHT22;4320;51.498;6.556;2023-05-13T00:01:14;14.30;99.90
8565;DHT22;4320;51.498;6.556;2023-05-13T00:03:41;14.30;99.90
8565;DHT22;4320;51.498;6.556;2023-05-13T00:06:06;14.30;99.90
8565;DHT22;4320;51.498;6.556;2023-05-13T00:08:32;14.30;99.90
8565;DHT22;4320;51.498;6.556;2023-05-13T00:10:58;14.40;99.90
8565;DHT22;4320;51.498;6.556;2023-05-13T00:13:23;14.40;99.90
8565;DHT22;4320;51.498;6.556;2023-05-13T00:15:49;14.30;99.90
8565;DHT22;4320;51.498;6.556;2023-05-13T00:18:15;14.30;99.90
8565;DHT22;4320;51.498;6.556;2023-05-13T00:20:41;14.40;99.90
8565;DHT22;4320;51.498;6.556;2023-05-13T00:23:06;14.40;99.90
8565;DHT22;4320;51.498;6.556;2023-05-13T00:25:32;14.40;99.90
8565;DHT22;4320;51.498;6.556;2023-05-13T00:27:58;14.40;99.90
8565;DHT22;4320;51.498;6.556;2023-05-13T00:30:24;14.40;99.90
8565;DHT22;4320;51.498;6.556;2023-05-13T00:32:49;14.40;99.90
8565;DHT22;4320;51.498;6.556;2023-05-13T00:35:16;14.40;99.90
8565;DHT22;4320;51.498;6.556;2023-05-13T00:37:42;14.40;99.90
8565;DHT22;4320;51.498;6.556;2023-05-13T00:40:18;14.40;99.90
8565;DHT22;4320;51.498;6.556;2023-05-13T00:42:44;14.40;99.90
8565;DHT22;4320;51.498;6.556;2023-05-13T00:45:10;14.40;99.90
8565;DHT22;4320;51.498;6.556;2023-05-13T00:47:35;14.40;99.90
8565;DHT22;4320;51.498;6.556;2023-05-13T00:50:02;14.40;99.90
8565;DHT22;4320;51.498;6.556;2023-05-13T00:52:28;14.40;99.90
8565;DHT22;4320;51.498;6.556;2023-05-13T00:54:53;14.40;99.90
8565;DHT22;4320;51.498;6.556;2023-05-13T00:57:20;14.40;99.90
8565;DHT22;4320;51.498;6.556;2023-05-13T00:59:45;14.40;99.90
8565;DHT22;4320;51.498;6.556;2023-05-13T01:02:34;14.40;99.90
8565;DHT22;4320;51.498;6.556;2023-05-13T01:05:20;14.40;99.90
8565;DHT22;4320;51.498;6.556;2023-05-13T01:08:09;14.30;99.90
8565;DHT22;4320;51.498;6.556;2023-05-13T01:10:44;14.30;99.90
8565;DHT22;4320;51.498;6.556;2023-05-13T01:13:13;14.30;99.90
8565;DHT22;4320;51.498;6.556;2023-05-13T01:15:49;14.30;99.90
8565;DHT22;4320;51.498;6.556;2023-05-13T01:18:25;14.30;99.90
8565;DHT22;4320;51.498;6.556;2023-05-13T01:20:52;14.20;99.90
8565;DHT22;4320;51.498;6.556;2023-05-13T01:23:18;14.20;99.90
8565;DHT22;4320;51.498;6.556;2023-05-13T01:25:44;14.30;99.90
8565;DHT22;4320;51.498;6.556;2023-05-13T01:28:09;14.20;99.90
8565;DHT22;4320;51.498;6.556;2023-05-13T01:30:35;14.20;99.90
8565;DHT22;4320;51.498;6.556;2023-05-13T01:33:01;14.10;99.90
8565;DHT22;4320;51.498;6.556;2023-05-13T01:35:28;14.10;99.90
8565;DHT22;4320;51.498;6.556;2023-05-13T01:37:56;14.10;99.90
8565;DHT22;4320;51.498;6.556;2023-05-13T01:40:22;14.10;99.90
8565;DHT22;4320;51.498;6.556;2023-05-13T01:42:48;14.00;99.90
8565;DHT22;4320;51.498;6.556;2023-05-13T01:45:14;14.00;99.90
8565;DHT22;4320;51.498;6.556;2023-05-13T01:47:40;14.00;99.90
8565;DHT22;4320;51.498;6.556;2023-05-13T01:50:06;14.10;99.90
8565;DHT22;4320;51.498;6.556;2023-05-13T01:52:32;14.00;99.90
8565;DHT22;4320;51.498;6.556;2023-05-13T01:54:57;14.00;99.90
8565;DHT22;4320;51.498;6.556;2023-05-13T01:57:24;14.00;99.90
8565;DHT22;4320;51.498;6.556;2023-05-13T01:59:49;14.00;99.90
8565;DHT22;4320;51.498;6.556;2023-05-13T02:02:15;14.00;99.90
8565;DHT22;4320;51.498;6.556;2023-05-13T02:04:41;13.90;99.90
8565;DHT22;4320;51.498;6.556;2023-05-13T02:07:06;13.90;99.90
8565;DHT22;4320;51.498;6.556;2023-05-13T02:09:32;13.90;99.90
8565;DHT22;4320;51.498;6.556;2023-05-13T02:11:58;13.90;99.90
8565;DHT22;4320;51.498;6.556;2023-05-13T02:14:23;13.90;99.90
8565;DHT22;4320;51.498;6.556;2023-05-13T02:16:49;13.80;99.90
8565;DHT22;4320;51.498;6.556;2023-05-13T02:19:14;13.70;99.90
8565;DHT22;4320;51.498;6.556;2023-05-13T02:21:40;13.70;99.90
8565;DHT22;4320;51.498;6.556;2023-05-13T02:24:07;13.70;99.90
8565;DHT22;4320;51.498;6.556;2023-05-13T02:26:33;13.70;99.90
8565;DHT22;4320;51.498;6.556;2023-05-13T02:28:59;13.70;99.90
8565;DHT22;4320;51.498;6.556;2023-05-13T02:31:24;13.60;99.90
8565;DHT22;4320;51.498;6.556;2023-05-13T02:33:51;13.70;99.90
8565;DHT22;4320;51.498;6.556;2023-05-13T02:36:16;13.60;99.90
8565;DHT22;4320;51.498;6.556;2023-05-13T02:38:42;13.60;99.90
8565;DHT22;4320;51.498;6.556;2023-05-13T02:41:07;13.60;99.90
8565;DHT22;4320;51.498;6.556;2023-05-13T02:43:33;13.60;99.90
8565;DHT22;4320;51.498;6.556;2023-05-13T02:45:58;13.50;99.90
8565;DHT22;4320;51.498;6.556;2023-05-13T02:48:25;13.50;99.90
8565;DHT22;4320;51.498;6.556;2023-05-13T02:50:50;13.50;99.90
8565;DHT22;4320;51.498;6.556;2023-05-13T02:53:16;13.50;99.90
8565;DHT22;4320;51.498;6.556;2023-05-13T02:55:41;13.50;99.90
8565;DHT22;4320;51.498;6.556;2023-05-13T02:58:08;13.50;99.90
8565;DHT22;4320;51.498;6.556;2023-05-13T03:00:34;13.40;99.90
8565;DHT22;4320;51.498;6.556;2023-05-13T03:02:59;13.40;99.90
8565;DHT22;4320;51.498;6.556;2023-05-13T03:05:25;13.40;99.90
8565;DHT22;4320;51.498;6.556;2023-05-13T03:07:50;13.40;99.90
8565;DHT22;4320;51.498;6.556;2023-05-13T03:10:16;13.30;99.90
8565;DHT22;4320;51.498;6.556;2023-05-13T03:12:42;13.30;99.90
8565;DHT22;4320;51.498;6.556;2023-05-13T03:15:08;13.30;99.90
8565;DHT22;4320;51.498;6.556;2023-05-13T03:17:34;13.30;99.90
8565;DHT22;4320;51.498;6.556;2023-05-13T03:20:00;13.30;99.90
8565;DHT22;4320;51.498;6.556;2023-05-13T03:22:26;13.30;99.90
8565;DHT22;4320;51.498;6.556;2023-05-13T03:24:51;13.30;99.90
8565;DHT22;4320;51.498;6.556;2023-05-13T03:27:17;13.30;99.90
8565;DHT22;4320;51.498;6.556;2023-05-13T03:29:43;13.30;99.90
8565;DHT22;4320;51.498;6.556;2023-05-13T03:32:09;13.30;99.90
8565;DHT22;4320;51.498;6.556;2023-05-13T03:34:34;13.30;99.90
8565;DHT22;4320;51.498;6.556;2023-05-13T03:37:02;13.30;99.90
8565;DHT22;4320;51.498;6.556;2023-05-13T03:39:27;13.30;99.90
8565;DHT22;4320;51.498;6.556;2023-05-13T03:41:53;13.30;99.90
8565;DHT22;4320;51.498;6.556;2023-05-13T03:44:19;13.30;99.90
8565;DHT22;4320;51.498;6.556;2023-05-13T03:46:44;13.30;99.90
8565;DHT22;4320;51.498;6.556;2023-05-13T03:49:10;13.20;99.90
8565;DHT22;4320;51.498;6.556;2023-05-13T03:51:36;13.30;99.90
8565;DHT22;4320;51.498;6.556;2023-05-13T03:54:02;13.30;99.90
8565;DHT22;4320;51.498;6.556;2023-05-13T03:56:27;13.20;99.90
8565;DHT22;4320;51.498;6.556;2023-05-13T03:58:53;13.20;99.90
8565;DHT22;4320;51.498;6.556;2023-05-13T04:01:19;13.20;99.90
8565;DHT22;4320;51.498;6.556;2023-05-13T04:03:45;13.20;99.90
8565;DHT22;4320;51.498;6.556;2023-05-13T04:06:11;13.20;99.90
8565;DHT22;4320;51.498;6.556;2023-05-13T04:08:38;13.20;99.90
8565;DHT22;4320;51.498;6.556;2023-05-13T04:11:04;13.10;99.90
8565;DHT22;4320;51.498;6.556;2023-05-13T04:13:35;13.10;99.90
8565;DHT22;4320;51.498;6.556;2023-05-13T04:16:01;13.10;99.90
8565;DHT22;4320;51.498;6.556;2023-05-13T04:18:30;13.10;99.90
8565;DHT22;4320;51.498;6.556;2023-05-13T04:20:56;13.10;99.90
8565;DHT22;4320;51.498;6.556;2023-05-13T04:23:21;13.10;99.90
8565;DHT22;4320;51.498;6.556;2023-05-13T04:25:50;13.10;99.90
8565;DHT22;4320;51.498;6.556;2023-05-13T04:28:17;13.00;99.90
8565;DHT22;4320;51.498;6.556;2023-05-13T04:30:43;13.10;99.90
8565;DHT22;4320;51.498;6.556;2023-05-13T04:33:08;13.10;99.90
8565;DHT22;4320;51.498;6.556;2023-05-13T04:35:34;13.10;99.90
8565;DHT22;4320;51.498;6.556;2023-05-13T04:37:59;13.10;99.90
8565;DHT22;4320;51.498;6.556;2023-05-13T04:40:25;13.10;99.90
8565;DHT22;4320;51.498;6.556;2023-05-13T04:42:51;13.10;99.90
8565;DHT22;4320;51.498;6.556;2023-05-13T04:45:19;13.20;99.90
8565;DHT22;4320;51.498;6.556;2023-05-13T04:47:45;13.20;99.90
8565;DHT22;4320;51.498;6.556;2023-05-13T04:50:10;13.20;99.90
8565;DHT22;4320;51.498;6.556;2023-05-13T04:52:36;13.20;99.90
8565;DHT22;4320;51.498;6.556;2023-05-13T04:55:02;13.20;99.90
8565;DHT22;4320;51.498;6.556;2023-05-13T04:57:28;13.20;99.90
8565;DHT22;4320;51.498;6.556;2023-05-13T04:59:53;13.30;99.90
8565;DHT22;4320;51.498;6.556;2023-05-13T05:02:19;13.30;99.90
8565;DHT22;4320;51.498;6.556;2023-05-13T05:04:44;13.30;99.90
8565;DHT22;4320;51.498;6.556;2023-05-13T05:07:10;13.40;99.90
8565;DHT22;4320;51.498;6.556;2023-05-13T05:09:36;13.50;99.90
8565;DHT22;4320;51.498;6.556;2023-05-13T05:12:01;13.60;99.90
8565;DHT22;4320;51.498;6.556;2023-05-13T05:14:27;14.00;99.90
8565;DHT22;4320;51.498;6.556;2023-05-13T05:16:52;14.50;99.90
8565;DHT22;4320;51.498;6.556;2023-05-13T05:19:18;14.60;99.90
8565;DHT22;4320;51.498;6.556;2023-05-13T05:21:51;14.60;99.90
8565;DHT22;4320;51.498;6.556;2023-05-13T05:24:17;14.90;99.90
8565;DHT22;4320;51.498;6.556;2023-05-13T05:26:43;15.30;99.90
8565;DHT22;4320;51.498;6.556;2023-05-13T05:29:08;15.60;99.90
8565;DHT22;4320;51.498;6.556;2023-05-13T05:31:34;15.90;99.90
8565;DHT22;4320;51.498;6.556;2023-05-13T05:33:59;16.30;99.90
8565;DHT22;4320;51.498;6.556;2023-05-13T05:36:27;16.10;99.90
8565;DHT22;4320;51.498;6.556;2023-05-13T05:38:53;15.90;99.90
8565;DHT22;4320;51.498;6.556;2023-05-13T05:41:19;15.80;99.90
8565;DHT22;4320;51.498;6.556;2023-05-13T05:43:44;15.80;99.90
8565;DHT22;4320;51.498;6.556;2023-05-13T05:46:10;15.90;99.90
8565;DHT22;4320;51.498;6.556;2023-05-13T05:48:35;16.10;99.90
8565;DHT22;4320;51.498;6.556;2023-05-13T05:51:01;16.20;99.90
8565;DHT22;4320;51.498;6.556;2023-05-13T05:53:27;16.10;99.90
8565;DHT22;4320;51.498;6.556;2023-05-13T05:55:53;15.90;99.90
8565;DHT22;4320;51.498;6.556;2023-05-13T05:58:18;15.80;99.90
8565;DHT22;4320;51.498;6.556;2023-05-13T06:00:44;15.80;99.90
8565;DHT22;4320;51.498;6.556;2023-05-13T06:03:10;16.00;99.90
8565;DHT22;4320;51.498;6.556;2023-05-13T06:05:37;16.40;99.90
8565;DHT22;4320;51.498;6.556;2023-05-13T06:08:03;16.70;99.90
8565;DHT22;4320;51.498;6.556;2023-05-13T06:10:28;17.40;99.90
8565;DHT22;4320;51.498;6.556;2023-05-13T06:12:54;17.70;99.90
8565;DHT22;4320;51.498;6.556;2023-05-13T06:15:20;17.70;99.90
8565;DHT22;4320;51.498;6.556;2023-05-13T06:17:45;17.80;99.40
8565;DHT22;4320;51.498;6.556;2023-05-13T06:20:11;17.80;97.80
8565;DHT22;4320;51.498;6.556;2023-05-13T06:22:37;18.10;95.80
8565;DHT22;4320;51.498;6.556;2023-05-13T06:25:03;18.20;94.50
8565;DHT22;4320;51.498;6.556;2023-05-13T06:27:29;18.20;90.30
8565;DHT22;4320;51.498;6.556;2023-05-13T06:29:54;18.20;90.00
8565;DHT22;4320;51.498;6.556;2023-05-13T06:32:20;18.20;83.90
8565;DHT22;4320;51.498;6.556;2023-05-13T06:34:45;18.00;81.60
8565;DHT22;4320;51.498;6.556;2023-05-13T06:37:12;17.90;83.30
8565;DHT22;4320;51.498;6.556;2023-05-13T06:39:40;18.00;86.00
8565;DHT22;4320;51.498;6.556;2023-05-13T06:42:06;18.30;81.60
8565;DHT22;4320;51.498;6.556;2023-05-13T06:44:31;18.20;72.80
8565;DHT22;4320;51.498;6.556;2023-05-13T06:46:57;18.30;73.20
8565;DHT22;4320;51.498;6.556;2023-05-13T06:49:23;18.40;68.60
8565;DHT22;4320;51.498;6.556;2023-05-13T06:51:49;18.40;60.00
8565;DHT22;4320;51.498;6.556;2023-05-13T06:54:15;18.30;57.20
8565;DHT22;4320;51.498;6.556;2023-05-13T06:56:41;18.20;59.70
8565;DHT22;4320;51.498;6.556;2023-05-13T06:59:06;18.40;61.70
8565;DHT22;4320;51.498;6.556;2023-05-13T07:01:32;18.50;56.70
8565;DHT22;4320;51.498;6.556;2023-05-13T07:03:57;18.50;57.60
8565;DHT22;4320;51.498;6.556;2023-05-13T07:06:23;18.80;56.80
8565;DHT22;4320;51.498;6.556;2023-05-13T07:08:49;19.00;54.40
8565;DHT22;4320;51.498;6.556;2023-05-13T07:11:14;18.90;49.10
8565;DHT22;4320;51.498;6.556;2023-05-13T07:13:40;19.20;40.90
8565;DHT22;4320;51.498;6.556;2023-05-13T07:16:06;19.60;31.40
8565;DHT22;4320;51.498;6.556;2023-05-13T07:18:31;19.90;28.80
8565;DHT22;4320;51.498;6.556;2023-05-13T07:20:57;20.00;21.70
8565;DHT22;4320;51.498;6.556;2023-05-13T07:23:23;20.10;18.30
8565;DHT22;4320;51.498;6.556;2023-05-13T07:25:49;20.60;12.70
8565;DHT22;4320;51.498;6.556;2023-05-13T07:28:16;20.70;5.50
8565;DHT22;4320;51.498;6.556;2023-05-13T07:30:42;20.70;4.90
8565;DHT22;4320;51.498;6.556;2023-05-13T07:33:07;20.70;1.00
8565;DHT22;4320;51.498;6.556;2023-05-13T07:35:33;20.80;1.00
8565;DHT22;4320;51.498;6.556;2023-05-13T07:37:59;21.10;1.00
8565;DHT22;4320;51.498;6.556;2023-05-13T07:40:24;21.70;1.00
8565;DHT22;4320;51.498;6.556;2023-05-13T07:42:50;22.70;1.00
8565;DHT22;4320;51.498;6.556;2023-05-13T07:45:16;23.60;1.00
8565;DHT22;4320;51.498;6.556;2023-05-13T07:47:41;23.90;1.00
8565;DHT22;4320;51.498;6.556;2023-05-13T07:50:07;23.90;1.00
8565;DHT22;4320;51.498;6.556;2023-05-13T07:52:33;24.20;1.00
8565;DHT22;4320;51.498;6.556;2023-05-13T07:54:59;24.20;1.00
8565;DHT22;4320;51.498;6.556;2023-05-13T07:57:25;24.10;1.00
8565;DHT22;4320;51.498;6.556;2023-05-13T07:59:51;23.70;1.00
8565;DHT22;4320;51.498;6.556;2023-05-13T08:02:18;23.40;1.00
8565;DHT22;4320;51.498;6.556;2023-05-13T08:04:43;23.30;1.00
8565;DHT22;4320;51.498;6.556;2023-05-13T08:07:09;23.00;1.00
8565;DHT22;4320;51.498;6.556;2023-05-13T08:09:34;22.70;1.00
8565;DHT22;4320;51.498;6.556;2023-05-13T08:12:00;22.70;1.00
8565;DHT22;4320;51.498;6.556;2023-05-13T08:14:26;22.60;1.00
8565;DHT22;4320;51.498;6.556;2023-05-13T08:16:51;22.60;1.00
8565;DHT22;4320;51.498;6.556;2023-05-13T08:19:18;22.60;1.00
8565;DHT22;4320;51.498;6.556;2023-05-13T08:21:43;22.70;1.00
8565;DHT22;4320;51.498;6.556;2023-05-13T08:24:09;23.40;1.00
8565;DHT22;4320;51.498;6.556;2023-05-13T08:26:36;23.80;1.00
8565;DHT22;4320;51.498;6.556;2023-05-13T08:29:01;23.60;1.00
8565;DHT22;4320;51.498;6.556;2023-05-13T08:31:27;23.20;1.00
8565;DHT22;4320;51.498;6.556;2023-05-13T08:33:53;22.90;1.00
8565;DHT22;4320;51.498;6.556;2023-05-13T08:36:19;23.00;1.00
8565;DHT22;4320;51.498;6.556;2023-05-13T08:38:46;23.10;1.00
8565;DHT22;4320;51.498;6.556;2023-05-13T08:41:12;23.20;1.00
8565;DHT22;4320;51.498;6.556;2023-05-13T08:43:38;23.70;1.00
8565;DHT22;4320;51.498;6.556;2023-05-13T08:46:07;23.40;1.00
8565;DHT22;4320;51.498;6.556;2023-05-13T08:48:34;23.60;1.00
8565;DHT22;4320;51.498;6.556;2023-05-13T08:51:00;23.10;1.00
8565;DHT22;4320;51.498;6.556;2023-05-13T08:53:27;22.70;1.00
8565;DHT22;4320;51.498;6.556;2023-05-13T08:55:53;22.70;1.00
8565;DHT22;4320;51.498;6.556;2023-05-13T08:58:19;22.70;1.00
8565;DHT22;4320;51.498;6.556;2023-05-13T09:00:46;22.80;1.00
8565;DHT22;4320;51.498;6.556;2023-05-13T09:03:13;22.60;1.00
8565;DHT22;4320;51.498;6.556;2023-05-13T09:05:39;22.40;1.00
8565;DHT22;4320;51.498;6.556;2023-05-13T09:08:08;22.10;1.00
8565;DHT22;4320;51.498;6.556;2023-05-13T09:10:35;22.00;1.00
8565;DHT22;4320;51.498;6.556;2023-05-13T09:13:01;22.00;1.00
8565;DHT22;4320;51.498;6.556;2023-05-13T09:15:27;22.10;1.00
8565;DHT22;4320;51.498;6.556;2023-05-13T09:20:21;22.30;1.00
8565;DHT22;4320;51.498;6.556;2023-05-13T09:22:49;22.50;1.00
8565;DHT22;4320;51.498;6.556;2023-05-13T09:25:16;22.50;1.00
8565;DHT22;4320;51.498;6.556;2023-05-13T09:27:44;22.50;1.00
8565;DHT22;4320;51.498;6.556;2023-05-13T09:30:10;22.50;1.00
8565;DHT22;4320;51.498;6.556;2023-05-13T09:32:40;22.60;1.00
8565;DHT22;4320;51.498;6.556;2023-05-13T09:37:44;22.10;1.00
8565;DHT22;4320;51.498;6.556;2023-05-13T09:40:15;22.20;1.00
8565;DHT22;4320;51.498;6.556;2023-05-13T09:42:44;22.50;1.00
8565;DHT22;4320;51.498;6.556;2023-05-13T09:45:11;22.60;1.00
8565;DHT22;4320;51.498;6.556;2023-05-13T09:47:37;22.70;1.00
8565;DHT22;4320;51.498;6.556;2023-05-13T09:50:04;22.80;1.00
8565;DHT22;4320;51.498;6.556;2023-05-13T09:52:30;22.80;1.00
8565;DHT22;4320;51.498;6.556;2023-05-13T09:55:00;23.00;1.00
8565;DHT22;4320;51.498;6.556;2023-05-13T09:57:29;23.00;1.00
8565;DHT22;4320;51.498;6.556;2023-05-13T09:59:59;23.30;1.00
8565;DHT22;4320;51.498;6.556;2023-05-13T10:02:26;23.30;1.00
8565;DHT22;4320;51.498;6.556;2023-05-13T10:04:52;23.40;1.00
8565;DHT22;4320;51.498;6.556;2023-05-13T10:07:20;23.40;1.00
8565;DHT22;4320;51.498;6.556;2023-05-13T10:09:56;23.50;1.00
8565;DHT22;4320;51.498;6.556;2023-05-13T10:12:24;23.60;1.00
8565;DHT22;4320;51.498;6.556;2023-05-13T10:14:50;23.60;1.00
8565;DHT22;4320;51.498;6.556;2023-05-13T10:17:21;23.70;1.00
8565;DHT22;4320;51.498;6.556;2023-05-13T10:19:52;23.60;1.00
8565;DHT22;4320;51.498;6.556;2023-05-13T10:22:29;23.60;1.00
8565;DHT22;4320;51.498;6.556;2023-05-13T10:24:59;23.50;1.00
8565;DHT22;4320;51.498;6.556;2023-05-13T10:27:31;23.50;1.00
8565;DHT22;4320;51.498;6.556;2023-05-13T10:29:58;23.60;1.00
8565;DHT22;4320;51.498;6.556;2023-05-13T10:32:25;23.70;1.00
8565;DHT22;4320;51.498;6.556;2023-05-13T10:35:07;23.90;1.00
8565;DHT22;4320;51.498;6.556;2023-05-13T10:45:49;24.00;1.00
8565;DHT22;4320;51.498;6.556;2023-05-13T10:48:16;24.00;1.00
8565;DHT22;4320;51.498;6.556;2023-05-13T10:50:57;24.00;1.00
8565;DHT22;4320;51.498;6.556;2023-05-13T10:53:28;24.00;1.00
8565;DHT22;4320;51.498;6.556;2023-05-13T10:55:56;24.10;1.00
8565;DHT22;4320;51.498;6.556;2023-05-13T10:58:29;24.10;1.00
8565;DHT22;4320;51.498;6.556;2023-05-13T11:01:12;24.20;1.00
8565;DHT22;4320;51.498;6.556;2023-05-13T11:03:39;24.20;1.00
8565;DHT22;4320;51.498;6.556;2023-05-13T11:06:16;24.20;1.00
8565;DHT22;4320;51.498;6.556;2023-05-13T11:08:44;24.00;1.00
8565;DHT22;4320;51.498;6.556;2023-05-13T11:11:29;23.90;1.00
8565;DHT22;4320;51.498;6.556;2023-05-13T11:14:02;23.80;1.00
8565;DHT22;4320;51.498;6.556;2023-05-13T11:16:32;23.90;1.00
8565;DHT22;4320;51.498;6.556;2023-05-13T11:18:58;24.40;1.00
8565;DHT22;4320;51.498;6.556;2023-05-13T11:21:34;24.90;1.00
8565;DHT22;4320;51.498;6.556;2023-05-13T11:24:04;25.30;1.00
8565;DHT22;4320;51.498;6.556;2023-05-13T11:26:52;25.80;1.00
8565;DHT22;4320;51.498;6.556;2023-05-13T11:29:32;26.00;1.00
8565;DHT22;4320;51.498;6.556;2023-05-13T11:31:59;26.20;1.00
8565;DHT22;4320;51.498;6.556;2023-05-13T11:34:25;26.20;1.00
8565;DHT22;4320;51.498;6.556;2023-05-13T11:39:23;26.20;1.00
8565;DHT22;4320;51.498;6.556;2023-05-13T11:41:52;26.10;1.00
8565;DHT22;4320;51.498;6.556;2023-05-13T11:44:21;26.30;1.00
8565;DHT22;4320;51.498;6.556;2023-05-13T11:46:56;26.40;1.00
8565;DHT22;4320;51.498;6.556;2023-05-13T11:49:44;26.50;1.00
8565;DHT22;4320;51.498;6.556;2023-05-13T11:52:16;26.80;1.00
8565;DHT22;4320;51.498;6.556;2023-05-13T11:54:56;26.90;1.00
8565;DHT22;4320;51.498;6.556;2023-05-13T11:57:24;26.90;1.00
8565;DHT22;4320;51.498;6.556;2023-05-13T11:59:58;27.30;1.00
8565;DHT22;4320;51.498;6.556;2023-05-13T12:02:29;27.50;1.00
8565;DHT22;4320;51.498;6.556;2023-05-13T12:04:58;27.60;1.00
8565;DHT22;4320;51.498;6.556;2023-05-13T12:07:24;27.70;1.00
8565;DHT22;4320;51.498;6.556;2023-05-13T12:09:52;28.10;1.00
8565;DHT22;4320;51.498;6.556;2023-05-13T12:12:19;28.20;1.00
8565;DHT22;4320;51.498;6.556;2023-05-13T12:14:46;28.30;1.00
8565;DHT22;4320;51.498;6.556;2023-05-13T12:17:17;28.30;1.00
8565;DHT22;4320;51.498;6.556;2023-05-13T12:20:09;28.30;1.00
8565;DHT22;4320;51.498;6.556;2023-05-13T12:25:36;28.60;1.00
8565;DHT22;4320;51.498;6.556;2023-05-13T12:30:35;28.70;1.00
8565;DHT22;4320;51.498;6.556;2023-05-13T12:33:02;28.70;1.00
8565;DHT22;4320;51.498;6.556;2023-05-13T12:35:30;28.70;1.00
8565;DHT22;4320;51.498;6.556;2023-05-13T12:38:00;28.70;1.00
8565;DHT22;4320;51.498;6.556;2023-05-13T12:40:26;28.80;1.00
8565;DHT22;4320;51.498;6.556;2023-05-13T12:42:55;29.00;1.00
8565;DHT22;4320;51.498;6.556;2023-05-13T12:45:21;29.00;1.00
8565;DHT22;4320;51.498;6.556;2023-05-13T12:47:50;28.90;1.00
8565;DHT22;4320;51.498;6.556;2023-05-13T12:50:16;28.90;1.00
8565;DHT22;4320;51.498;6.556;2023-05-13T12:52:42;28.70;1.00
8565;DHT22;4320;51.498;6.556;2023-05-13T12:55:08;28.70;1.00
8565;DHT22;4320;51.498;6.556;2023-05-13T12:57:34;28.70;1.00
8565;DHT22;4320;51.498;6.556;2023-05-13T12:59:59;28.50;1.00
8565;DHT22;4320;51.498;6.556;2023-05-13T13:02:25;28.40;1.00
8565;DHT22;4320;51.498;6.556;2023-05-13T13:04:51;28.30;1.00
8565;DHT22;4320;51.498;6.556;2023-05-13T13:07:16;28.20;1.00
8565;DHT22;4320;51.498;6.556;2023-05-13T13:09:42;28.30;1.00
8565;DHT22;4320;51.498;6.556;2023-05-13T13:12:08;28.20;1.00
8565;DHT22;4320;51.498;6.556;2023-05-13T13:14:33;28.30;1.00
8565;DHT22;4320;51.498;6.556;2023-05-13T13:16:59;27.90;1.00
8565;DHT22;4320;51.498;6.556;2023-05-13T13:19:24;27.90;1.00
8565;DHT22;4320;51.498;6.556;2023-05-13T13:21:50;27.50;1.00
8565;DHT22;4320;51.498;6.556;2023-05-13T13:24:16;27.50;1.00
8565;DHT22;4320;51.498;6.556;2023-05-13T13:26:41;27.50;1.00
8565;DHT22;4320;51.498;6.556;2023-05-13T13:29:07;27.40;1.00
8565;DHT22;4320;51.498;6.556;2023-05-13T13:31:32;27.40;1.00
8565;DHT22;4320;51.498;6.556;2023-05-13T13:33:58;26.90;1.00
8565;DHT22;4320;51.498;6.556;2023-05-13T13:36:28;26.50;1.00
8565;DHT22;4320;51.498;6.556;2023-05-13T13:38:54;26.30;1.00
8565;DHT22;4320;51.498;6.556;2023-05-13T13:41:19;26.00;1.00
8565;DHT22;4320;51.498;6.556;2023-05-13T13:43:52;26.00;1.00
8565;DHT22;4320;51.498;6.556;2023-05-13T13:46:18;26.20;1.00
8565;DHT22;4320;51.498;6.556;2023-05-13T13:48:43;26.40;1.00
8565;DHT22;4320;51.498;6.556;2023-05-13T13:51:09;26.40;1.00
8565;DHT22;4320;51.498;6.556;2023-05-13T13:53:34;26.10;1.00
8565;DHT22;4320;51.498;6.556;2023-05-13T13:56:00;25.80;1.00
8565;DHT22;4320;51.498;6.556;2023-05-13T13:58:26;25.50;1.00
8565;DHT22;4320;51.498;6.556;2023-05-13T14:00:51;25.40;1.00
8565;DHT22;4320;51.498;6.556;2023-05-13T14:03:17;25.50;1.00
8565;DHT22;4320;51.498;6.556;2023-05-13T14:05:43;25.50;1.00
8565;DHT22;4320;51.498;6.556;2023-05-13T14:08:10;25.50;1.00
8565;DHT22;4320;51.498;6.556;2023-05-13T14:10:36;25.30;1.00
8565;DHT22;4320;51.498;6.556;2023-05-13T14:13:02;25.20;1.00
8565;DHT22;4320;51.498;6.556;2023-05-13T14:15:28;25.20;1.00
8565;DHT22;4320;51.498;6.556;2023-05-13T14:17:55;25.30;1.00
8565;DHT22;4320;51.498;6.556;2023-05-13T14:20:21;25.50;1.00
8565;DHT22;4320;51.498;6.556;2023-05-13T14:22:47;25.60;1.00
8565;DHT22;4320;51.498;6.556;2023-05-13T14:25:13;25.80;1.00
8565;DHT22;4320;51.498;6.556;2023-05-13T14:27:39;25.90;1.00
8565;DHT22;4320;51.498;6.556;2023-05-13T14:30:05;25.90;1.00
8565;DHT22;4320;51.498;6.556;2023-05-13T14:32:32;25.90;1.00
8565;DHT22;4320;51.498;6.556;2023-05-13T14:34:57;25.80;1.00
8565;DHT22;4320;51.498;6.556;2023-05-13T14:37:23;25.50;1.00
8565;DHT22;4320;51.498;6.556;2023-05-13T14:39:49;25.30;1.00
8565;DHT22;4320;51.498;6.556;2023-05-13T14:42:14;25.00;1.00
8565;DHT22;4320;51.498;6.556;2023-05-13T14:44:40;24.80;1.00
8565;DHT22;4320;51.498;6.556;2023-05-13T14:47:06;24.60;1.00
8565;DHT22;4320;51.498;6.556;2023-05-13T14:49:32;24.50;1.00
8565;DHT22;4320;51.498;6.556;2023-05-13T14:51:58;24.40;1.00
8565;DHT22;4320;51.498;6.556;2023-05-13T14:54:23;24.40;1.00
8565;DHT22;4320;51.498;6.556;2023-05-13T14:56:50;24.40;1.00
8565;DHT22;4320;51.498;6.556;2023-05-13T14:59:16;24.40;1.00
8565;DHT22;4320;51.498;6.556;2023-05-13T15:01:42;24.50;1.00
8565;DHT22;4320;51.498;6.556;2023-05-13T15:04:07;24.70;1.00
8565;DHT22;4320;51.498;6.556;2023-05-13T15:06:35;24.70;1.00
8565;DHT22;4320;51.498;6.556;2023-05-13T15:09:01;24.80;1.00
8565;DHT22;4320;51.498;6.556;2023-05-13T15:11:27;25.00;1.00
8565;DHT22;4320;51.498;6.556;2023-05-13T15:13:52;25.10;1.00
8565;DHT22;4320;51.498;6.556;2023-05-13T15:16:18;25.10;1.00
8565;DHT22;4320;51.498;6.556;2023-05-13T15:18:43;25.20;1.00
8565;DHT22;4320;51.498;6.556;2023-05-13T15:21:09;25.30;1.00
8565;DHT22;4320;51.498;6.556;2023-05-13T15:23:35;25.30;1.00
8565;DHT22;4320;51.498;6.556;2023-05-13T15:26:01;25.40;1.00
8565;DHT22;4320;51.498;6.556;2023-05-13T15:28:26;25.40;1.00
8565;DHT22;4320;51.498;6.556;2023-05-13T15:30:53;25.30;1.00
8565;DHT22;4320;51.498;6.556;2023-05-13T15:33:19;25.10;1.00
8565;DHT22;4320;51.498;6.556;2023-05-13T15:35:45;24.90;1.00
8565;DHT22;4320;51.498;6.556;2023-05-13T15:38:10;24.70;1.00
8565;DHT22;4320;51.498;6.556;2023-05-13T15:40:37;24.60;1.00
8565;DHT22;4320;51.498;6.556;2023-05-13T15:43:03;24.30;1.00
8565;DHT22;4320;51.498;6.556;2023-05-13T15:45:29;24.20;1.00
8565;DHT22;4320;51.498;6.556;2023-05-13T15:47:55;24.10;1.00
8565;DHT22;4320;51.498;6.556;2023-05-13T15:50:20;24.00;1.00
8565;DHT22;4320;51.498;6.556;2023-05-13T15:52:46;24.00;1.00
8565;DHT22;4320;51.498;6.556;2023-05-13T15:55:12;23.90;1.00
8565;DHT22;4320;51.498;6.556;2023-05-13T15:57:37;23.80;1.00
8565;DHT22;4320;51.498;6.556;2023-05-13T16:00:05;23.60;1.00
8565;DHT22;4320;51.498;6.556;2023-05-13T16:02:30;23.50;1.00
8565;DHT22;4320;51.498;6.556;2023-05-13T16:05:02;23.20;1.00
8565;DHT22;4320;51.498;6.556;2023-05-13T16:07:28;22.60;1.00
8565;DHT22;4320;51.498;6.556;2023-05-13T16:09:53;22.50;1.00
8565;DHT22;4320;51.498;6.556;2023-05-13T16:12:19;22.40;1.00
8565;DHT22;4320;51.498;6.556;2023-05-13T16:14:45;22.20;1.00
8565;DHT22;4320;51.498;6.556;2023-05-13T16:17:11;21.80;1.00
8565;DHT22;4320;51.498;6.556;2023-05-13T16:19:37;21.70;1.00
8565;DHT22;4320;51.498;6.556;2023-05-13T16:22:38;21.30;1.00
8565;DHT22;4320;51.498;6.556;2023-05-13T16:25:06;21.10;1.00
8565;DHT22;4320;51.498;6.556;2023-05-13T16:27:33;21.00;1.00
8565;DHT22;4320;51.498;6.556;2023-05-13T16:30:00;21.00;1.00